Terminal Aerodrome Forecast
Issued by NWS Cleveland, OH

Home | Current Version | Previous Version | Text Only | Print | Product List | Glossary On
Versions: 1 2 3 4 5 6 7 8 9 10 11 12 13 14 15 16 17
000
FTUS41 KCLE 221700
TAFYNG
TAF
KYNG 221720Z 2218/2318 30011G16KT P6SM SCT120
     FM230100 VRB03KT P6SM SKC
     FM231500 20006KT P6SM SKC=

USA.gov is the U.S. government's official web portal to all federal, state and local government web resources and services.